Time;durP1;ratioP1;P1;durP2;ratioP2;P2;SDS_P1;SDS_P2;PMS_P1;PMS_P2;Temp;Humidity;BMP_temperature;BMP_pressure;BME280_temperature;BME280_humidity;BME280_pressure;Samples;Min_cycle;Max_cycle;Signal;HPM_P1;HPM_P2
2020/12/15 00:00:51;;;;;;;26.23;16.58;;;;;;;3.89;76.31;95392.56;5007035;28;20046;-49
2020/12/15 00:03:17;;;;;;;27.08;15.75;;;;;;;3.86;76.32;95377.09;5011910;28;20057;-47
2020/12/15 00:05:44;;;;;;;24.85;15.80;;;;;;;3.96;76.16;95386.78;5012053;28;20117;-46
2020/12/15 00:08:10;;;;;;;28.08;16.33;;;;;;;4.06;75.64;95396.47;5012024;28;20058;-45
2020/12/15 00:10:42;;;;;;;26.25;15.80;;;;;;;3.96;76.07;95392.94;5013075;28;20065;-49
2020/12/15 00:13:10;;;;;;;27.05;16.52;;;;;;;3.88;76.48;95380.28;5016575;28;20503;-50
2020/12/15 00:15:39;;;;;;;30.02;17.45;;;;;;;3.82;76.22;95353.94;5018410;28;20046;-50
2020/12/15 00:18:05;;;;;;;27.70;15.82;;;;;;;3.90;76.67;95366.56;5024585;28;20507;-50
2020/12/15 00:20:46;;;;;;;31.77;18.38;;;;;;;3.86;76.69;95362.94;5019752;28;20041;-50
2020/12/15 00:23:12;;;;;;;29.45;16.83;;;;;;;3.86;76.67;95363.72;5032788;28;20056;-48
2020/12/15 00:25:40;;;;;;;29.90;18.13;;;;;;;4.06;76.44;95369.69;5026998;28;20053;-48
2020/12/15 00:28:06;;;;;;;28.92;17.15;;;;;;;3.92;76.29;95348.34;4993175;28;20142;-46
2020/12/15 00:30:33;;;;;;;30.48;17.63;;;;;;;4.14;76.02;95363.63;5011367;28;20038;-46
2020/12/15 00:32:59;;;;;;;44.47;18.95;;;;;;;4.03;76.43;95356.91;5023312;28;20046;-46
2020/12/15 00:35:27;;;;;;;30.55;17.52;;;;;;;4.03;76.17;95357.72;5012549;28;20077;-47
2020/12/15 00:37:54;;;;;;;32.17;18.23;;;;;;;3.97;76.57;95350.91;5011359;28;20049;-48
2020/12/15 00:40:21;;;;;;;31.30;17.35;;;;;;;3.97;76.64;95350.91;5012459;28;20450;-48
2020/12/15 00:42:47;;;;;;;43.30;19.00;;;;;;;3.71;77.52;95343.47;5019588;28;20107;-47
2020/12/15 00:45:14;;;;;;;38.42;18.40;;;;;;;3.86;77.37;95350.34;5016893;28;20061;-47
2020/12/15 00:47:41;;;;;;;34.40;18.90;;;;;;;3.95;77.13;95353.09;5011949;28;20168;-48
2020/12/15 00:50:07;;;;;;;35.45;19.20;;;;;;;4.06;76.52;95348.28;5011505;28;20133;-46
2020/12/15 00:52:34;;;;;;;35.63;19.33;;;;;;;4.00;76.74;95358.34;5009934;28;20050;-44
2020/12/15 00:55:00;;;;;;;39.25;19.20;;;;;;;3.97;77.01;95370.44;5010922;28;20535;-53
2020/12/15 00:57:28;;;;;;;34.60;18.08;;;;;;;3.83;77.31;95383.06;5011532;28;20052;-45
2020/12/15 00:59:55;;;;;;;32.47;18.50;;;;;;;3.94;76.67;95389.78;5010529;28;20558;-45
2020/12/15 01:02:22;;;;;;;31.35;18.13;;;;;;;4.13;76.11;95386.94;5009683;28;20056;-52
2020/12/15 01:04:49;;;;;;;33.60;18.77;;;;;;;4.26;75.81;95401.34;5011737;28;20180;-46
2020/12/15 01:07:16;;;;;;;33.45;17.65;;;;;;;4.31;75.67;95392.41;5013612;28;20041;-45
2020/12/15 01:09:43;;;;;;;33.85;18.63;;;;;;;4.33;75.25;95391.00;5022712;28;20061;-53
2020/12/15 01:12:11;;;;;;;31.50;18.33;;;;;;;4.33;75.51;95396.34;5011233;28;20514;-46
2020/12/15 01:14:38;;;;;;;34.75;18.52;;;;;;;4.32;75.16;95384.06;5009512;28;20047;-44
2020/12/15 01:17:08;;;;;;;35.47;18.98;;;;;;;4.23;75.64;95401.97;5009991;28;20057;-47
2020/12/15 01:19:36;;;;;;;32.15;17.48;;;;;;;4.22;75.64;95403.03;5010328;28;20049;-45
2020/12/15 01:22:03;;;;;;;31.42;18.20;;;;;;;4.26;75.56;95404.03;5011791;28;20137;-50
2020/12/15 01:24:30;;;;;;;33.08;18.63;;;;;;;4.15;75.98;95406.13;5010006;28;20114;-44
2020/12/15 01:27:12;;;;;;;31.40;18.17;;;;;;;4.21;75.81;95409.50;5009781;28;20049;-49
2020/12/15 01:29:53;;;;;;;33.80;18.08;;;;;;;4.29;75.46;95410.63;5010402;28;20046;-49
2020/12/15 01:32:25;;;;;;;28.02;16.35;;;;;;;4.04;75.32;95406.69;5009790;28;20133;-49
2020/12/15 01:34:51;;;;;;;31.60;17.17;;;;;;;4.13;75.49;95413.69;4994585;28;20502;-50
2020/12/15 01:37:18;;;;;;;34.15;18.33;;;;;;;4.15;75.12;95410.72;4992822;28;20057;-49
2020/12/15 01:39:45;;;;;;;28.50;17.08;;;;;;;4.10;75.79;95416.97;5010073;28;20045;-48
2020/12/15 01:42:21;;;;;;;28.38;15.90;;;;;;;4.02;75.95;95416.91;5011647;28;20046;-48
2020/12/15 01:44:54;;;;;;;29.03;16.63;;;;;;;4.06;76.12;95412.53;5010345;28;20046;-51
2020/12/15 01:47:20;;;;;;;31.30;17.70;;;;;;;4.06;75.99;95399.13;5010276;28;20337;-49
2020/12/15 01:49:48;;;;;;;32.03;16.98;;;;;;;4.04;76.36;95414.72;5011751;28;20458;-49
2020/12/15 01:52:17;;;;;;;33.85;17.48;;;;;;;4.06;76.12;95412.53;4994508;28;20458;-50
2020/12/15 01:54:52;;;;;;;29.38;16.83;;;;;;;4.11;76.11;95421.22;5010384;28;20050;-49
2020/12/15 01:57:31;;;;;;;30.05;16.63;;;;;;;4.16;75.70;95428.34;5006152;28;20046;-53
2020/12/15 02:00:04;;;;;;;;;;;;;;;4.47;74.75;95431.09;5010619;28;20049;-50
2020/12/15 02:02:41;;;;;;;35.30;17.40;;;;;;;4.20;74.86;95419.41;5011509;28;19940;-49
2020/12/15 02:05:15;;;;;;;55.08;21.33;;;;;;;3.49;77.66;95418.31;5010506;28;20467;-52
2020/12/15 02:07:45;;;;;;;41.17;19.98;;;;;;;3.11;80.00;95407.03;5008783;28;20141;-48
2020/12/15 02:10:11;;;;;;;38.15;18.73;;;;;;;3.32;79.58;95405.56;5010723;28;20109;-50
2020/12/15 02:12:56;;;;;;;36.65;18.90;;;;;;;3.65;77.93;95405.41;5023406;28;20066;-49
2020/12/15 02:15:23;;;;;;;40.90;18.13;;;;;;;3.55;77.68;95419.78;5009998;28;20049;-47
2020/12/15 02:17:56;;;;;;;36.40;18.30;;;;;;;3.60;77.88;95426.91;5009797;28;20058;-50
2020/12/15 02:20:38;;;;;;;34.13;18.40;;;;;;;3.48;78.45;95424.78;5010031;28;20046;-50
2020/12/15 02:23:32;;;;;;;34.20;18.30;;;;;;;3.57;78.06;95438.22;5008947;28;20129;-48
2020/12/15 02:26:10;;;;;;;38.38;18.00;;;;;;;3.38;78.46;95425.78;5008590;28;20054;-49
2020/12/15 02:28:38;;;;;;;48.25;19.65;;;;;;;2.88;80.64;95436.31;5010304;28;20068;-52
2020/12/15 02:31:05;;;;;;;53.10;22.17;;;;;;;2.35;83.24;95436.72;5011196;28;20157;-54
2020/12/15 02:33:38;;;;;;;;;;;;;;;2.66;82.56;95431.63;5010910;28;20410;-51
2020/12/15 02:36:05;;;;;;;45.50;21.05;;;;;;;2.86;81.94;95427.84;5010566;28;19971;-50
2020/12/15 02:38:37;;;;;;;45.75;19.83;;;;;;;3.03;80.75;95430.72;5009611;28;20388;-52
2020/12/15 02:41:05;;;;;;;45.40;21.33;;;;;;;3.10;80.47;95435.66;5012103;28;20050;-53
2020/12/15 02:43:42;;;;;;;44.90;21.17;;;;;;;3.17;80.43;95425.38;5010602;28;20053;-53
2020/12/15 02:46:11;;;;;;;47.50;21.65;;;;;;;3.11;80.25;95431.09;5009585;28;20057;-51
2020/12/15 02:48:39;;;;;;;60.35;23.10;;;;;;;3.01;80.48;95427.53;5010058;28;20100;-51
2020/12/15 02:51:07;;;;;;;52.08;23.30;;;;;;;2.80;81.42;95427.13;5010620;28;20109;-51
2020/12/15 02:53:59;;;;;;;90.65;24.35;;;;;;;2.59;82.11;95433.91;5009920;28;20525;-54
2020/12/15 02:56:26;;;;;;;52.08;22.52;;;;;;;2.36;83.68;95432.16;5012786;28;20523;-51
2020/12/15 02:58:54;;;;;;;47.03;22.23;;;;;;;2.75;82.72;95434.44;5014437;28;20054;-52
2020/12/15 03:01:21;;;;;;;38.53;19.25;;;;;;;3.10;81.27;95445.56;5015244;28;20112;-49
2020/12/15 03:03:52;;;;;;;37.45;18.85;;;;;;;3.01;81.02;95443.56;5013959;28;20499;-51
2020/12/15 03:06:29;;;;;;;34.35;18.45;;;;;;;3.26;79.58;95442.31;4993899;28;20081;-51
2020/12/15 03:09:02;;;;;;;35.65;18.77;;;;;;;3.18;79.46;95447.53;5012816;28;20053;-50
2020/12/15 03:11:29;;;;;;;40.00;19.88;;;;;;;2.95;80.10;95449.31;5014295;28;20056;-49
2020/12/15 03:14:04;;;;;;;38.83;19.55;;;;;;;2.82;80.96;95440.19;5013871;28;20447;-50
2020/12/15 03:16:30;;;;;;;33.38;17.90;;;;;;;2.75;81.17;95437.88;5003156;28;20058;-52
2020/12/15 03:18:57;;;;;;;33.30;18.27;;;;;;;2.62;81.47;95430.66;4994003;28;20046;-51
2020/12/15 03:21:24;;;;;;;31.67;17.27;;;;;;;2.51;81.92;95438.03;4994021;28;20357;-50
2020/12/15 03:23:51;;;;;;;41.20;20.20;;;;;;;2.12;82.93;95424.28;4994624;28;20050;-54
2020/12/15 03:26:19;;;;;;;41.85;19.90;;;;;;;2.06;83.97;95435.00;5013242;28;20050;-54
2020/12/15 03:28:47;;;;;;;40.85;19.90;;;;;;;2.22;83.45;95427.56;5013710;28;20050;-53
2020/12/15 03:31:13;;;;;;;38.38;18.65;;;;;;;2.41;82.52;95440.88;5014702;28;20073;-51
2020/12/15 03:33:40;;;;;;;39.42;18.63;;;;;;;2.59;81.79;95431.22;5011642;28;20054;-50
2020/12/15 03:36:10;;;;;;;44.67;20.13;;;;;;;2.55;81.58;95447.03;5012179;28;20137;-52
2020/12/15 03:38:40;;;;;;;32.95;20.00;;;;;;;2.66;81.83;95452.22;5011561;28;20053;-53
2020/12/15 03:41:07;;;;;;;33.33;18.77;;;;;;;2.85;81.33;95450.28;5012346;28;20069;-51
2020/12/15 03:43:49;;;;;;;33.03;18.58;;;;;;;3.04;80.66;95445.66;4998444;28;20076;-53
2020/12/15 03:46:21;;;;;;;30.13;17.30;;;;;;;3.21;79.33;95439.72;5012167;28;20124;-53
2020/12/15 03:48:51;;;;;;;24.92;15.13;;;;;;;3.16;79.03;95444.38;5012165;28;20145;-50
2020/12/15 03:51:18;;;;;;;23.27;14.00;;;;;;;3.27;78.68;95461.81;5012408;28;20054;-54
2020/12/15 03:54:03;;;;;;;21.30;14.05;;;;;;;3.37;78.30;95448.22;5012662;28;20042;-55
2020/12/15 03:56:32;;;;;;;20.38;13.43;;;;;;;3.54;77.48;95452.19;5011780;28;20480;-53
2020/12/15 03:59:00;;;;;;;19.27;12.77;;;;;;;3.46;77.36;95456.34;5011879;28;20046;-50
2020/12/15 04:01:26;;;;;;;18.58;11.13;;;;;;;3.36;77.90;95464.59;5011998;28;20116;-52
2020/12/15 04:03:54;;;;;;;15.88;10.48;;;;;;;3.46;76.79;95449.13;5011557;28;20053;-52
2020/12/15 04:06:27;;;;;;;15.98;10.05;;;;;;;3.62;76.44;95448.81;5011668;28;20123;-53
2020/12/15 04:09:03;;;;;;;15.25;10.40;;;;;;;3.74;75.50;95439.19;4993212;28;20073;-51
2020/12/15 04:11:30;;;;;;;17.65;11.02;;;;;;;3.73;75.43;95436.78;4992543;28;20412;-51
2020/12/15 04:13:56;;;;;;;17.95;10.65;;;;;;;3.81;75.16;95443.34;4992577;28;20050;-51
2020/12/15 04:16:23;;;;;;;16.77;11.32;;;;;;;3.86;74.97;95438.66;5001765;28;20046;-51
2020/12/15 04:19:02;;;;;;;17.52;10.95;;;;;;;3.86;75.00;95424.47;4992172;28;20049;-52
2020/12/15 04:21:29;;;;;;;16.90;11.30;;;;;;;3.86;74.86;95427.16;5008753;28;20064;-55
2020/12/15 04:24:00;;;;;;;17.00;11.32;;;;;;;3.79;75.55;95435.59;4992581;28;20082;-52
2020/12/15 04:26:31;;;;;;;16.25;11.68;;;;;;;3.46;75.51;95400.19;5023136;28;20073;-54
2020/12/15 04:28:58;;;;;;;17.33;11.30;;;;;;;3.54;76.27;95423.53;5012933;28;20052;-54
2020/12/15 04:31:37;;;;;;;15.73;10.55;;;;;;;3.55;76.13;95409.09;5011977;28;20467;-52
2020/12/15 04:34:04;;;;;;;15.60;10.52;;;;;;;3.56;76.01;95431.28;5011595;28;20153;-52
2020/12/15 04:36:30;;;;;;;16.10;10.68;;;;;;;3.47;76.27;95428.50;4993678;28;20062;-53
2020/12/15 04:38:57;;;;;;;15.57;10.27;;;;;;;3.55;76.14;95437.72;5006976;28;20121;-53
2020/12/15 04:41:41;;;;;;;14.18;9.35;;;;;;;3.41;76.12;95413.66;4993130;28;20124;-51
2020/12/15 04:44:08;;;;;;;14.23;9.88;;;;;;;3.27;76.62;95384.25;4993886;28;20507;-51
2020/12/15 04:46:51;;;;;;;15.40;10.27;;;;;;;3.28;77.18;95370.63;4993483;28;20058;-51
2020/12/15 04:49:20;;;;;;;14.43;10.00;;;;;;;3.33;76.76;95347.53;4993147;28;20388;-51
2020/12/15 04:52:03;;;;;;;15.13;9.98;;;;;;;3.57;76.28;95336.56;4993712;28;20051;-54
2020/12/15 04:54:48;;;;;;;14.15;9.25;;;;;;;3.59;75.60;95356.56;4992871;28;20133;-53
2020/12/15 04:57:21;;;;;;;12.60;8.70;;;;;;;3.33;76.29;95348.31;5002508;28;20093;-50
2020/12/15 04:59:49;;;;;;;14.52;9.32;;;;;;;3.26;76.85;95342.59;5011434;28;20129;-52
2020/12/15 05:02:25;;;;;;;13.23;9.32;;;;;;;3.38;76.65;95326.00;5011489;28;20054;-54
2020/12/15 05:04:54;;;;;;;13.70;9.27;;;;;;;3.43;76.12;95317.88;5011272;28;20050;-50
2020/12/15 05:07:22;;;;;;;15.05;9.52;;;;;;;3.56;75.61;95316.28;4999625;28;20049;-49
2020/12/15 05:10:10;;;;;;;14.10;9.45;;;;;;;3.71;75.02;95315.94;5015159;28;20133;-51
2020/12/15 05:12:54;;;;;;;12.05;8.30;;;;;;;3.73;74.13;95306.47;5014005;28;20056;-52
2020/12/15 05:15:21;;;;;;;11.65;8.45;;;;;;;3.61;74.34;95286.75;5014032;28;20099;-53
2020/12/15 05:17:50;;;;;;;11.77;8.48;;;;;;;3.50;74.48;95262.88;5012908;28;20060;-54
2020/12/15 05:20:28;;;;;;;;;;;;;;;3.71;74.07;95259.75;5014192;28;20073;-53
2020/12/15 05:23:06;;;;;;;10.57;7.65;;;;;;;3.57;74.15;95261.66;5029482;28;19928;-51
2020/12/15 05:25:35;;;;;;;9.82;7.22;;;;;;;3.38;74.15;95261.84;5012280;28;20670;-52
2020/12/15 05:28:14;;;;;;;10.55;8.05;;;;;;;3.33;74.56;95305.53;5012993;28;20060;-50
2020/12/15 05:30:59;;;;;;;10.85;7.60;;;;;;;3.21;75.37;95361.41;5012892;28;20050;-50
2020/12/15 05:33:32;;;;;;;;;;;;;;;3.22;74.84;95358.44;5013600;28;20050;-52
2020/12/15 05:36:22;;;;;;;10.45;7.13;;;;;;;3.15;75.35;95352.72;5012573;28;19932;-53
2020/12/15 05:39:25;;;;;;;10.70;7.55;;;;;;;3.07;75.08;95352.63;4932839;29;20043;-50
2020/12/15 05:42:07;;;;;;;11.02;7.82;;;;;;;3.01;75.88;95341.22;4983959;28;20054;-49
2020/12/15 05:44:37;;;;;;;10.55;7.60;;;;;;;3.11;75.37;95335.66;4993282;28;20160;-51
2020/12/15 05:47:08;;;;;;;9.57;7.28;;;;;;;3.18;75.07;95352.09;5003955;28;20468;-49
2020/12/15 05:49:48;;;;;;;10.65;7.85;;;;;;;3.16;75.14;95364.19;5012474;28;20042;-49
2020/12/15 05:52:14;;;;;;;11.73;8.18;;;;;;;2.98;75.94;95353.28;5014173;28;20073;-53
2020/12/15 05:54:40;;;;;;;10.30;7.60;;;;;;;3.15;75.79;95346.56;5012421;28;20060;-47
2020/12/15 05:57:07;;;;;;;11.05;7.57;;;;;;;3.26;75.03;95351.41;5012965;28;20073;-52
2020/12/15 05:59:34;;;;;;;10.52;7.63;;;;;;;3.27;74.65;95331.59;5013136;28;20088;-50
2020/12/15 06:02:11;;;;;;;10.38;7.20;;;;;;;3.48;74.82;95350.66;5010428;28;20140;-46
2020/12/15 06:04:39;;;;;;;10.38;7.20;;;;;;;3.08;76.13;95349.63;5011504;28;20061;-44
2020/12/15 06:07:08;;;;;;;11.40;8.25;;;;;;;2.55;77.97;95340.22;5009962;28;20134;-48
2020/12/15 06:09:35;;;;;;;10.43;7.43;;;;;;;2.77;78.04;95338.78;5011200;28;20515;-46
2020/12/15 06:12:04;;;;;;;12.13;8.02;;;;;;;2.93;77.13;95339.25;5011298;28;20103;-50
2020/12/15 06:14:31;;;;;;;9.80;7.47;;;;;;;2.83;77.28;95340.25;5011454;28;20058;-45
2020/12/15 06:16:57;;;;;;;9.98;7.55;;;;;;;2.78;76.94;95335.00;5008887;28;20056;-49
2020/12/15 06:19:30;;;;;;;10.15;7.05;;;;;;;3.21;75.95;95350.69;5011153;28;20054;-46
2020/12/15 06:21:59;;;;;;;10.13;7.63;;;;;;;3.41;74.64;95361.00;5011370;28;20153;-51
2020/12/15 06:24:30;;;;;;;9.55;7.40;;;;;;;3.24;74.48;95356.25;5010045;28;20144;-45
2020/12/15 06:27:00;;;;;;;12.38;7.85;;;;;;;2.98;75.84;95358.63;5011168;28;20061;-46
2020/12/15 06:29:40;;;;;;;12.23;8.02;;;;;;;3.06;76.06;95361.72;5012346;28;20105;-46
2020/12/15 06:32:19;;;;;;;10.77;7.95;;;;;;;3.22;75.59;95365.69;5014962;28;20046;-48
2020/12/15 06:34:47;;;;;;;10.13;7.20;;;;;;;3.38;75.02;95360.78;5013748;28;20137;-48
2020/12/15 06:37:18;;;;;;;10.77;7.88;;;;;;;3.53;74.09;95362.34;5012821;28;20042;-48
2020/12/15 06:39:56;;;;;;;10.52;7.95;;;;;;;3.49;74.49;95362.94;5014875;28;20054;-47
2020/12/15 06:42:35;;;;;;;11.23;8.07;;;;;;;3.50;74.66;95364.50;5015036;28;20045;-49
2020/12/15 06:45:07;;;;;;;12.27;8.18;;;;;;;3.47;74.60;95356.31;5013546;28;20137;-49
2020/12/15 06:47:35;;;;;;;12.75;8.00;;;;;;;3.24;75.40;95360.81;5014592;28;20058;-47
2020/12/15 06:50:09;;;;;;;11.13;8.07;;;;;;;3.02;76.21;95330.25;5015660;28;20072;-49
2020/12/15 06:52:36;;;;;;;;;;;;;;;3.33;74.81;95355.56;5018252;28;20042;-50
2020/12/15 06:55:02;;;;;;;11.50;8.25;;;;;;;2.80;77.00;95367.56;5016636;28;19936;-53
2020/12/15 06:57:31;;;;;;;13.82;8.45;;;;;;;2.49;78.61;95362.75;5017069;28;20062;-51
2020/12/15 06:59:59;;;;;;;13.10;8.32;;;;;;;2.75;78.33;95375.66;5016474;28;20050;-52
2020/12/15 07:02:30;;;;;;;11.95;8.75;;;;;;;2.83;77.65;95382.19;5017288;28;20053;-54
2020/12/15 07:05:17;;;;;;;11.15;7.88;;;;;;;2.76;78.41;95380.72;5014307;28;20080;-51
2020/12/15 07:07:49;;;;;;;11.30;8.02;;;;;;;3.01;76.86;95362.59;5014426;28;20057;-55
2020/12/15 07:10:17;;;;;;;12.88;8.43;;;;;;;3.20;76.78;95381.22;5014199;28;20049;-52
2020/12/15 07:12:46;;;;;;;11.00;8.40;;;;;;;3.42;76.21;95377.81;5015457;28;20149;-52
2020/12/15 07:15:14;;;;;;;13.00;8.27;;;;;;;3.53;75.41;95389.88;5013594;28;20053;-53
2020/12/15 07:17:43;;;;;;;14.57;9.65;;;;;;;3.60;75.49;95384.13;5014658;28;20061;-51
2020/12/15 07:20:10;;;;;;;13.65;9.48;;;;;;;3.57;75.04;95387.38;5014605;28;20567;-53
2020/12/15 07:22:36;;;;;;;14.82;9.05;;;;;;;3.39;76.17;95389.13;5014848;28;20128;-52
2020/12/15 07:25:04;;;;;;;15.00;9.32;;;;;;;3.53;76.06;95400.56;5013881;28;20058;-54
2020/12/15 07:27:32;;;;;;;15.80;8.90;;;;;;;3.79;74.73;95392.78;5014819;28;20065;-53
2020/12/15 07:29:59;;;;;;;13.70;9.73;;;;;;;3.75;75.27;95397.16;5015117;28;20046;-52
2020/12/15 07:32:27;;;;;;;15.40;9.40;;;;;;;3.68;74.59;95410.97;5014922;28;20058;-51
2020/12/15 07:35:01;;;;;;;12.50;8.95;;;;;;;3.70;75.12;95406.06;5013703;28;20447;-51
2020/12/15 07:37:28;;;;;;;12.85;8.95;;;;;;;3.51;75.26;95413.47;5007842;28;20052;-55
2020/12/15 07:40:01;;;;;;;12.57;8.82;;;;;;;3.67;75.11;95419.25;4994609;28;20054;-51
2020/12/15 07:42:28;;;;;;;14.40;9.85;;;;;;;3.74;73.81;95395.59;4994156;28;20060;-52
2020/12/15 07:45:00;;;;;;;14.82;9.70;;;;;;;3.74;74.42;95412.44;4994029;28;20047;-47
2020/12/15 07:47:27;;;;;;;12.73;9.43;;;;;;;3.72;74.82;95403.91;5010162;28;20054;-46
2020/12/15 07:49:57;;;;;;;14.02;9.95;;;;;;;3.79;74.63;95400.03;5013399;28;20128;-47
2020/12/15 07:52:35;;;;;;;13.65;9.27;;;;;;;3.80;74.94;95399.72;5013371;28;20046;-46
2020/12/15 07:55:06;;;;;;;14.35;9.30;;;;;;;3.92;74.35;95416.03;5012464;28;20053;-44
2020/12/15 07:57:35;;;;;;;12.52;9.02;;;;;;;3.93;73.28;95423.00;5012889;28;20056;-49
2020/12/15 08:00:17;;;;;;;12.15;8.75;;;;;;;4.06;73.58;95413.31;5011789;28;20053;-46
2020/12/15 08:02:48;;;;;;;13.18;9.27;;;;;;;4.02;72.96;95422.25;5013405;28;20054;-45
2020/12/15 08:05:16;;;;;;;14.25;9.75;;;;;;;4.06;73.05;95423.22;5013162;28;20053;-48
2020/12/15 08:07:49;;;;;;;13.50;9.95;;;;;;;3.99;73.63;95424.44;5011983;28;20046;-50
2020/12/15 08:10:23;;;;;;;16.15;10.52;;;;;;;3.83;73.70;95431.22;5013397;28;20148;-53
2020/12/15 08:12:50;;;;;;;14.57;9.57;;;;;;;3.72;74.59;95424.53;5013068;28;20129;-52
2020/12/15 08:15:17;;;;;;;15.18;10.10;;;;;;;3.83;74.01;95433.91;5011819;28;20123;-54
2020/12/15 08:17:48;;;;;;;13.82;9.98;;;;;;;3.88;73.65;95433.78;5013360;28;20054;-45
2020/12/15 08:20:16;;;;;;;14.98;10.15;;;;;;;3.92;73.65;95424.06;5012720;28;20042;-45
2020/12/15 08:22:45;;;;;;;15.48;10.45;;;;;;;4.05;73.29;95443.06;5013105;28;20111;-46
2020/12/15 08:25:15;;;;;;;16.75;10.65;;;;;;;4.10;73.32;95440.28;5011664;28;20431;-44
2020/12/15 08:27:50;;;;;;;18.73;11.18;;;;;;;4.16;73.02;95437.19;5012841;28;20057;-47
2020/12/15 08:30:20;;;;;;;16.20;10.13;;;;;;;4.24;72.81;95435.66;5012852;28;20052;-47
2020/12/15 08:32:49;;;;;;;19.75;10.93;;;;;;;4.21;72.86;95449.66;5011733;28;20129;-49
2020/12/15 08:35:26;;;;;;;15.30;11.07;;;;;;;4.17;72.79;95454.03;5012620;28;20062;-50
2020/12/15 08:37:59;;;;;;;19.25;10.23;;;;;;;4.06;73.36;95456.13;5011528;28;20042;-50
2020/12/15 08:40:27;;;;;;;18.25;10.90;;;;;;;3.86;73.93;95460.06;5012535;28;20064;-45
2020/12/15 08:43:03;;;;;;;16.40;10.50;;;;;;;3.96;74.52;95462.53;5012764;28;20084;-46
2020/12/15 08:45:31;;;;;;;17.77;10.32;;;;;;;4.11;73.66;95441.88;5011347;28;20046;-48
2020/12/15 08:47:58;;;;;;;15.85;10.13;;;;;;;4.36;73.40;95460.03;5011416;28;20060;-45
2020/12/15 08:50:27;;;;;;;14.80;9.88;;;;;;;4.57;72.49;95459.53;5007460;28;20408;-47
2020/12/15 08:53:08;;;;;;;15.20;10.35;;;;;;;4.39;72.62;95454.06;4992038;28;20058;-44
2020/12/15 08:55:35;;;;;;;16.48;10.90;;;;;;;4.31;73.53;95457.44;5002795;28;20054;-45
2020/12/15 08:58:04;;;;;;;15.75;10.77;;;;;;;4.31;73.85;95460.13;5012460;28;20053;-45
2020/12/15 09:00:35;;;;;;;13.23;10.05;;;;;;;4.40;73.35;95461.00;5012301;28;20136;-46
2020/12/15 09:03:13;;;;;;;14.65;10.18;;;;;;;4.32;72.93;95448.34;5012367;28;20546;-45
2020/12/15 09:05:53;;;;;;;17.70;11.18;;;;;;;4.41;73.24;95470.59;5011360;28;20073;-48
2020/12/15 09:08:22;;;;;;;16.42;10.13;;;;;;;4.45;72.59;95447.50;5012002;28;20156;-47
2020/12/15 09:10:49;;;;;;;15.65;10.60;;;;;;;4.53;72.49;95459.34;5012257;28;20420;-50
2020/12/15 09:13:16;;;;;;;14.05;10.30;;;;;;;4.74;72.14;95469.56;5011968;28;20052;-50
2020/12/15 09:15:49;;;;;;;14.65;10.13;;;;;;;4.74;71.52;95470.34;5011115;28;20136;-48
2020/12/15 09:18:16;;;;;;;;;;;;;;;4.75;71.15;95471.16;5012695;28;20159;-50
2020/12/15 09:20:43;;;;;;;14.02;9.73;;;;;;;4.57;71.81;95479.06;5012151;28;19921;-49
2020/12/15 09:23:11;;;;;;;15.32;10.38;;;;;;;4.72;71.62;95474.47;5012030;28;20104;-49
2020/12/15 09:25:39;;;;;;;15.25;10.35;;;;;;;4.84;71.49;95486.22;4999193;28;20061;-52
2020/12/15 09:28:05;;;;;;;14.13;9.95;;;;;;;4.85;70.96;95487.78;5002967;28;20104;-49
2020/12/15 09:30:31;;;;;;;15.90;9.90;;;;;;;4.90;70.44;95487.63;5006411;28;20049;-50
2020/12/15 09:33:02;;;;;;;15.23;10.73;;;;;;;4.83;71.04;95481.91;5008678;28;20046;-50
2020/12/15 09:35:28;;;;;;;14.70;10.57;;;;;;;4.95;71.40;95500.13;5009622;28;20188;-52
2020/12/15 09:37:55;;;;;;;14.43;10.18;;;;;;;4.76;70.66;95492.28;5008863;28;20124;-48
2020/12/15 09:40:22;;;;;;;17.20;9.88;;;;;;;4.98;70.73;95493.38;5010835;28;20137;-49
2020/12/15 09:42:48;;;;;;;13.52;9.52;;;;;;;4.92;70.06;95490.81;5010888;28;20447;-51
2020/12/15 09:45:14;;;;;;;15.05;10.25;;;;;;;4.88;71.08;95491.75;5010589;28;20056;-50
2020/12/15 09:47:41;;;;;;;16.90;10.95;;;;;;;5.00;71.66;95483.91;4997896;28;20073;-49
2020/12/15 09:50:09;;;;;;;14.07;10.40;;;;;;;5.07;70.36;95488.81;5012019;28;20049;-49
2020/12/15 09:52:36;;;;;;;14.43;10.63;;;;;;;4.64;70.89;95492.81;5008447;28;20080;-52
2020/12/15 09:55:06;;;;;;;14.43;10.32;;;;;;;4.76;71.37;95502.22;5012373;28;20434;-49
2020/12/15 09:57:36;;;;;;;16.25;10.88;;;;;;;4.82;70.79;95503.69;4992209;28;20073;-49
2020/12/15 10:00:04;;;;;;;15.00;10.68;;;;;;;4.57;71.97;95491.69;5021534;28;20074;-49
2020/12/15 10:02:34;;;;;;;15.60;11.18;;;;;;;4.67;72.02;95502.16;5012507;28;20049;-48
2020/12/15 10:05:01;;;;;;;16.08;11.20;;;;;;;4.52;72.44;95497.16;5013488;28;20054;-48
2020/12/15 10:07:28;;;;;;;15.30;11.23;;;;;;;4.09;74.14;95500.25;5026497;28;20125;-48
2020/12/15 10:09:57;;;;;;;16.63;11.43;;;;;;;4.13;74.48;95504.72;5014247;28;20492;-50
2020/12/15 10:12:24;;;;;;;18.08;11.68;;;;;;;4.24;74.45;95473.16;5030641;28;20073;-53
2020/12/15 10:14:51;;;;;;;18.40;12.50;;;;;;;4.62;73.33;95478.19;5013256;28;20072;-51
2020/12/15 10:17:17;;;;;;;17.63;11.80;;;;;;;4.74;72.50;95461.53;5006813;28;20491;-49
2020/12/15 10:19:44;;;;;;;16.70;11.73;;;;;;;4.95;72.39;95464.50;5014332;28;20053;-49
2020/12/15 10:22:10;;;;;;;18.17;12.32;;;;;;;4.96;72.84;95455.34;5021407;28;20514;-48
2020/12/15 10:24:37;;;;;;;15.77;11.32;;;;;;;5.11;72.36;95442.34;5014380;28;20144;-49
2020/12/15 10:27:03;;;;;;;17.05;11.55;;;;;;;5.48;71.21;95472.44;5014949;28;20519;-49
2020/12/15 10:29:30;;;;;;;17.17;11.07;;;;;;;5.65;70.02;95465.56;5015290;28;20408;-48
2020/12/15 10:31:57;;;;;;;15.73;10.68;;;;;;;5.80;69.32;95463.22;5014861;28;20065;-56
2020/12/15 10:34:23;;;;;;;15.38;11.57;;;;;;;5.83;69.63;95467.97;5013548;28;20141;-46
2020/12/15 10:36:50;;;;;;;14.88;11.10;;;;;;;5.89;69.17;95460.56;5012728;28;20045;-46
2020/12/15 10:39:17;;;;;;;15.25;10.65;;;;;;;5.89;68.84;95470.53;5011084;28;20058;-46
2020/12/15 10:41:43;;;;;;;15.38;11.38;;;;;;;5.95;69.16;95466.63;5014185;28;20046;-47
2020/12/15 10:44:14;;;;;;;17.38;11.55;;;;;;;6.10;68.74;95479.56;5014149;28;20058;-49
2020/12/15 10:46:45;;;;;;;18.55;11.23;;;;;;;6.16;68.42;95480.22;5013578;28;20046;-45
2020/12/15 10:49:12;;;;;;;17.17;12.57;;;;;;;6.16;68.21;95478.31;5009834;28;20486;-51
2020/12/15 10:51:39;;;;;;;17.55;12.60;;;;;;;6.06;68.62;95474.03;5002126;28;20427;-44
2020/12/15 10:54:06;;;;;;;16.20;11.38;;;;;;;5.98;68.13;95477.53;5007112;28;20125;-44
2020/12/15 10:56:32;;;;;;;16.95;10.98;;;;;;;6.01;69.24;95468.03;5008794;28;20073;-46
2020/12/15 10:59:00;;;;;;;15.98;11.50;;;;;;;5.94;69.15;95471.19;5027389;28;20384;-48
2020/12/15 11:01:28;;;;;;;19.55;12.95;;;;;;;5.84;69.78;95466.06;5013662;28;20042;-47
2020/12/15 11:03:55;;;;;;;17.42;12.32;;;;;;;5.98;68.98;95469.47;5012681;28;20500;-44
2020/12/15 11:06:24;;;;;;;17.60;12.27;;;;;;;6.05;69.21;95466.31;5014182;28;20057;-45
2020/12/15 11:08:50;;;;;;;19.02;11.77;;;;;;;5.96;70.00;95470.88;5010935;28;20426;-48
2020/12/15 11:11:17;;;;;;;16.48;12.02;;;;;;;6.01;68.94;95478.75;5009502;28;20078;-46
2020/12/15 11:13:43;;;;;;;20.25;11.60;;;;;;;6.10;69.10;95476.88;4997744;28;20073;-45
2020/12/15 11:16:10;;;;;;;16.30;12.20;;;;;;;6.18;67.93;95473.44;5011039;28;20057;-51
2020/12/15 11:18:37;;;;;;;20.95;12.07;;;;;;;6.23;67.92;95473.25;5012584;28;20113;-48
2020/12/15 11:21:03;;;;;;;19.08;11.95;;;;;;;6.32;67.35;95459.84;5014037;28;20125;-47
2020/12/15 11:23:30;;;;;;;19.15;12.40;;;;;;;6.23;68.77;95475.16;5028538;28;20133;-45
2020/12/15 11:26:14;;;;;;;18.80;11.73;;;;;;;6.41;68.11;95475.97;5012776;28;20554;-48
2020/12/15 11:28:41;;;;;;;18.88;12.27;;;;;;;6.58;68.04;95481.34;5012508;28;20120;-49
2020/12/15 11:31:09;;;;;;;15.32;11.52;;;;;;;6.66;67.50;95477.88;5012328;28;20060;-49
2020/12/15 11:33:36;;;;;;;16.00;11.88;;;;;;;6.71;67.13;95477.69;5013039;28;20054;-47
2020/12/15 11:36:02;;;;;;;17.50;12.25;;;;;;;6.92;67.17;95479.69;5010561;28;20081;-46
2020/12/15 11:38:28;;;;;;;18.13;12.98;;;;;;;7.05;64.86;95478.72;5012363;28;20049;-45
2020/12/15 11:40:55;;;;;;;21.15;12.60;;;;;;;6.99;65.89;95482.72;5011749;28;20053;-45
2020/12/15 11:43:21;;;;;;;17.73;12.10;;;;;;;6.98;65.54;95495.34;5011761;28;20452;-48